sensor_id;sensor_type;location;lat;lon;timestamp;pressure;altitude;pressure_sealevel;temperature;humidity
9289;BME280;4683;50.864;12.086;2022-12-10T00:01:52;98124.19;;;3.15;100.00
9289;BME280;4683;50.864;12.086;2022-12-10T00:04:25;98122.22;;;3.09;100.00
9289;BME280;4683;50.864;12.086;2022-12-10T00:06:54;98123.78;;;3.02;100.00
9289;BME280;4683;50.864;12.086;2022-12-10T00:09:23;98124.91;;;2.91;100.00
9289;BME280;4683;50.864;12.086;2022-12-10T00:11:52;98124.38;;;2.88;100.00
9289;BME280;4683;50.864;12.086;2022-12-10T00:14:21;98120.53;;;3.00;100.00
9289;BME280;4683;50.864;12.086;2022-12-10T00:16:49;98128.06;;;3.11;100.00
9289;BME280;4683;50.864;12.086;2022-12-10T00:19:17;98122.81;;;3.03;100.00
9289;BME280;4683;50.864;12.086;2022-12-10T00:21:45;98131.13;;;3.07;100.00
9289;BME280;4683;50.864;12.086;2022-12-10T00:24:14;98138.50;;;3.11;100.00
9289;BME280;4683;50.864;12.086;2022-12-10T00:26:44;98141.84;;;3.03;100.00
9289;BME280;4683;50.864;12.086;2022-12-10T00:29:13;98134.97;;;2.94;100.00
9289;BME280;4683;50.864;12.086;2022-12-10T00:31:42;98138.44;;;3.03;100.00
9289;BME280;4683;50.864;12.086;2022-12-10T00:34:13;98145.97;;;3.06;100.00
9289;BME280;4683;50.864;12.086;2022-12-10T00:36:45;98143.84;;;2.75;100.00
9289;BME280;4683;50.864;12.086;2022-12-10T00:39:17;98143.84;;;2.75;100.00
9289;BME280;4683;50.864;12.086;2022-12-10T00:41:48;98139.50;;;2.84;100.00
9289;BME280;4683;50.864;12.086;2022-12-10T00:44:17;98138.69;;;2.84;100.00
9289;BME280;4683;50.864;12.086;2022-12-10T00:46:45;98134.03;;;2.69;100.00
9289;BME280;4683;50.864;12.086;2022-12-10T00:49:14;98146.81;;;2.54;100.00
9289;BME280;4683;50.864;12.086;2022-12-10T00:51:42;98143.53;;;2.52;100.00
9289;BME280;4683;50.864;12.086;2022-12-10T00:54:11;98147.28;;;2.58;100.00
9289;BME280;4683;50.864;12.086;2022-12-10T00:56:40;98143.84;;;2.75;100.00
9289;BME280;4683;50.864;12.086;2022-12-10T00:59:10;98144.34;;;2.79;100.00
9289;BME280;4683;50.864;12.086;2022-12-10T01:01:41;98146.91;;;2.71;100.00
9289;BME280;4683;50.864;12.086;2022-12-10T01:08:16;98149.50;;;2.71;100.00
9289;BME280;4683;50.864;12.086;2022-12-10T01:10:46;98154.19;;;2.67;100.00
9289;BME280;4683;50.864;12.086;2022-12-10T01:13:20;98147.06;;;2.69;100.00
9289;BME280;4683;50.864;12.086;2022-12-10T01:15:49;98146.44;;;2.75;100.00
9289;BME280;4683;50.864;12.086;2022-12-10T01:18:18;98146.03;;;2.88;100.00
9289;BME280;4683;50.864;12.086;2022-12-10T01:20:46;98142.38;;;2.73;100.00
9289;BME280;4683;50.864;12.086;2022-12-10T01:23:15;98143.78;;;2.67;100.00
9289;BME280;4683;50.864;12.086;2022-12-10T01:25:43;98155.53;;;2.71;100.00
9289;BME280;4683;50.864;12.086;2022-12-10T01:28:11;98152.47;;;2.76;100.00
9289;BME280;4683;50.864;12.086;2022-12-10T01:30:40;98153.50;;;2.83;100.00
9289;BME280;4683;50.864;12.086;2022-12-10T01:33:10;98158.75;;;2.91;100.00
9289;BME280;4683;50.864;12.086;2022-12-10T01:35:43;98159.56;;;2.92;100.00
9289;BME280;4683;50.864;12.086;2022-12-10T01:38:13;98159.97;;;2.79;100.00
9289;BME280;4683;50.864;12.086;2022-12-10T01:40:41;98166.19;;;2.60;100.00
9289;BME280;4683;50.864;12.086;2022-12-10T01:43:13;98160.25;;;2.76;100.00
9289;BME280;4683;50.864;12.086;2022-12-10T01:45:42;98173.44;;;2.74;100.00
9289;BME280;4683;50.864;12.086;2022-12-10T01:48:13;98171.25;;;2.62;100.00
9289;BME280;4683;50.864;12.086;2022-12-10T01:50:41;98165.06;;;2.63;100.00
9289;BME280;4683;50.864;12.086;2022-12-10T01:53:11;98169.13;;;2.39;100.00
9289;BME280;4683;50.864;12.086;2022-12-10T01:55:46;98159.38;;;2.59;100.00
9289;BME280;4683;50.864;12.086;2022-12-10T01:58:18;98159.09;;;2.70;100.00
9289;BME280;4683;50.864;12.086;2022-12-10T02:00:59;98167.19;;;2.59;100.00
9289;BME280;4683;50.864;12.086;2022-12-10T02:03:52;98162.34;;;2.46;100.00
9289;BME280;4683;50.864;12.086;2022-12-10T02:06:39;98160.56;;;2.47;100.00
9289;BME280;4683;50.864;12.086;2022-12-10T02:09:19;98154.66;;;2.63;100.00
9289;BME280;4683;50.864;12.086;2022-12-10T02:12:10;98159.75;;;2.72;100.00
9289;BME280;4683;50.864;12.086;2022-12-10T02:14:51;98158.06;;;2.63;100.00
9289;BME280;4683;50.864;12.086;2022-12-10T02:17:26;98157.72;;;2.58;100.00
9289;BME280;4683;50.864;12.086;2022-12-10T02:20:05;98162.06;;;2.32;100.00
9289;BME280;4683;50.864;12.086;2022-12-10T02:22:38;98159.41;;;2.23;100.00
9289;BME280;4683;50.864;12.086;2022-12-10T02:25:17;98160.00;;;2.17;100.00
9289;BME280;4683;50.864;12.086;2022-12-10T02:27:54;98150.72;;;2.33;100.00
9289;BME280;4683;50.864;12.086;2022-12-10T02:30:28;98158.09;;;2.19;100.00
9289;BME280;4683;50.864;12.086;2022-12-10T02:32:59;98155.31;;;2.39;100.00
9289;BME280;4683;50.864;12.086;2022-12-10T02:35:31;98163.88;;;2.57;100.00
9289;BME280;4683;50.864;12.086;2022-12-10T02:38:11;98164.91;;;2.20;100.00
9289;BME280;4683;50.864;12.086;2022-12-10T02:40:46;98149.59;;;2.17;100.00
9289;BME280;4683;50.864;12.086;2022-12-10T02:43:16;98153.25;;;2.24;100.00
9289;BME280;4683;50.864;12.086;2022-12-10T02:45:47;98152.69;;;2.39;100.00
9289;BME280;4683;50.864;12.086;2022-12-10T02:48:15;98155.69;;;2.26;100.00
9289;BME280;4683;50.864;12.086;2022-12-10T02:50:44;98160.16;;;2.34;100.00
9289;BME280;4683;50.864;12.086;2022-12-10T02:53:12;98158.59;;;2.41;100.00
9289;BME280;4683;50.864;12.086;2022-12-10T02:55:58;98161.19;;;2.41;100.00
9289;BME280;4683;50.864;12.086;2022-12-10T02:58:38;98160.31;;;2.58;100.00
9289;BME280;4683;50.864;12.086;2022-12-10T03:01:19;98168.16;;;2.22;100.00
9289;BME280;4683;50.864;12.086;2022-12-10T03:03:52;98177.09;;;2.38;100.00
9289;BME280;4683;50.864;12.086;2022-12-10T03:06:30;98171.22;;;2.36;100.00
9289;BME280;4683;50.864;12.086;2022-12-10T03:09:04;98176.41;;;2.36;100.00
9289;BME280;4683;50.864;12.086;2022-12-10T03:11:34;98181.50;;;2.01;100.00
9289;BME280;4683;50.864;12.086;2022-12-10T03:14:06;98177.47;;;2.07;100.00
9289;BME280;4683;50.864;12.086;2022-12-10T03:16:43;98183.84;;;2.31;100.00
9289;BME280;4683;50.864;12.086;2022-12-10T03:19:15;98176.28;;;2.37;100.00
9289;BME280;4683;50.864;12.086;2022-12-10T03:21:47;98170.56;;;2.34;100.00
9289;BME280;4683;50.864;12.086;2022-12-10T03:24:17;98176.50;;;2.08;100.00
9289;BME280;4683;50.864;12.086;2022-12-10T03:26:48;98171.75;;;2.03;100.00
9289;BME280;4683;50.864;12.086;2022-12-10T03:29:24;98180.44;;;1.94;100.00
9289;BME280;4683;50.864;12.086;2022-12-10T03:32:01;98173.78;;;2.10;100.00
9289;BME280;4683;50.864;12.086;2022-12-10T03:34:30;98176.22;;;2.11;100.00
9289;BME280;4683;50.864;12.086;2022-12-10T03:36:59;98166.84;;;2.18;100.00
9289;BME280;4683;50.864;12.086;2022-12-10T03:39:29;98176.50;;;2.08;100.00
9289;BME280;4683;50.864;12.086;2022-12-10T03:41:57;98173.06;;;2.25;100.00
9289;BME280;4683;50.864;12.086;2022-12-10T03:44:31;98181.13;;;2.32;100.00
9289;BME280;4683;50.864;12.086;2022-12-10T03:47:02;98169.88;;;2.32;100.00
9289;BME280;4683;50.864;12.086;2022-12-10T03:49:31;98177.91;;;2.02;100.00
9289;BME280;4683;50.864;12.086;2022-12-10T03:51:59;98176.06;;;2.13;100.00
9289;BME280;4683;50.864;12.086;2022-12-10T03:54:28;98178.22;;;2.17;100.00
9289;BME280;4683;50.864;12.086;2022-12-10T03:56:56;98175.59;;;2.17;100.00
9289;BME280;4683;50.864;12.086;2022-12-10T03:59:24;98175.59;;;2.17;100.00
9289;BME280;4683;50.864;12.086;2022-12-10T04:01:53;98171.66;;;2.13;100.00
9289;BME280;4683;50.864;12.086;2022-12-10T04:04:23;98176.38;;;2.27;100.00
9289;BME280;4683;50.864;12.086;2022-12-10T04:06:51;98174.34;;;2.03;100.00
9289;BME280;4683;50.864;12.086;2022-12-10T04:09:19;98173.53;;;2.03;100.00
9289;BME280;4683;50.864;12.086;2022-12-10T04:11:48;98167.06;;;2.07;100.00
9289;BME280;4683;50.864;12.086;2022-12-10T04:14:16;98181.94;;;2.15;100.00
9289;BME280;4683;50.864;12.086;2022-12-10T04:17:02;98174.50;;;2.20;100.00
9289;BME280;4683;50.864;12.086;2022-12-10T04:19:32;98179.78;;;2.28;100.00
9289;BME280;4683;50.864;12.086;2022-12-10T04:22:00;98175.31;;;2.20;100.00
9289;BME280;4683;50.864;12.086;2022-12-10T04:24:46;98178.97;;;2.27;100.00
9289;BME280;4683;50.864;12.086;2022-12-10T04:27:35;98180.59;;;2.28;100.00
9289;BME280;4683;50.864;12.086;2022-12-10T04:30:11;98182.50;;;2.09;100.00
9289;BME280;4683;50.864;12.086;2022-12-10T04:32:39;98172.50;;;2.14;100.00
9289;BME280;4683;50.864;12.086;2022-12-10T04:35:10;98185.13;;;2.26;100.00
9289;BME280;4683;50.864;12.086;2022-12-10T04:37:38;98173.22;;;2.42;100.00
9289;BME280;4683;50.864;12.086;2022-12-10T04:40:09;98178.19;;;2.35;100.00
9289;BME280;4683;50.864;12.086;2022-12-10T04:42:37;98171.22;;;2.36;100.00
9289;BME280;4683;50.864;12.086;2022-12-10T04:45:06;98169.50;;;2.09;100.00
9289;BME280;4683;50.864;12.086;2022-12-10T04:47:35;98167.34;;;2.22;100.00
9289;BME280;4683;50.864;12.086;2022-12-10T04:50:04;98163.88;;;2.13;100.00
9289;BME280;4683;50.864;12.086;2022-12-10T04:52:33;98164.38;;;1.99;100.00
9289;BME280;4683;50.864;12.086;2022-12-10T04:55:02;98163.38;;;2.10;100.00
9289;BME280;4683;50.864;12.086;2022-12-10T04:57:30;98165.44;;;2.24;100.00
9289;BME280;4683;50.864;12.086;2022-12-10T04:59:58;98161.13;;;2.33;100.00
9289;BME280;4683;50.864;12.086;2022-12-10T05:02:26;98162.34;;;2.46;100.00
9289;BME280;4683;50.864;12.086;2022-12-10T05:04:55;98164.50;;;2.51;100.00
9289;BME280;4683;50.864;12.086;2022-12-10T05:07:23;98163.09;;;2.39;100.00
9289;BME280;4683;50.864;12.086;2022-12-10T05:09:53;98171.59;;;2.41;100.00
9289;BME280;4683;50.864;12.086;2022-12-10T05:12:22;98163.53;;;2.52;100.00
9289;BME280;4683;50.864;12.086;2022-12-10T05:14:50;98167.47;;;2.56;100.00
9289;BME280;4683;50.864;12.086;2022-12-10T05:17:18;98167.25;;;2.49;100.00
9289;BME280;4683;50.864;12.086;2022-12-10T05:19:46;98163.53;;;2.52;100.00
9289;BME280;4683;50.864;12.086;2022-12-10T05:22:15;98169.78;;;2.59;100.00
9289;BME280;4683;50.864;12.086;2022-12-10T05:25:05;98167.13;;;2.51;100.00
9289;BME280;4683;50.864;12.086;2022-12-10T05:27:33;98167.50;;;2.38;100.00
9289;BME280;4683;50.864;12.086;2022-12-10T05:30:02;98165.56;;;2.40;100.00
9289;BME280;4683;50.864;12.086;2022-12-10T05:32:30;98178.44;;;2.42;100.00
9289;BME280;4683;50.864;12.086;2022-12-10T05:34:58;98170.00;;;2.48;100.00
9289;BME280;4683;50.864;12.086;2022-12-10T05:37:27;98173.94;;;2.52;100.00
9289;BME280;4683;50.864;12.086;2022-12-10T05:39:56;98184.75;;;2.39;100.00
9289;BME280;4683;50.864;12.086;2022-12-10T05:42:26;98186.81;;;2.18;100.00
9289;BME280;4683;50.864;12.086;2022-12-10T05:44:54;98182.06;;;2.31;100.00
9289;BME280;4683;50.864;12.086;2022-12-10T05:47:22;98177.91;;;2.38;100.00
9289;BME280;4683;50.864;12.086;2022-12-10T05:49:51;98186.06;;;2.43;100.00
9289;BME280;4683;50.864;12.086;2022-12-10T05:52:20;98186.22;;;2.42;100.00
9289;BME280;4683;50.864;12.086;2022-12-10T05:54:48;98184.16;;;2.45;100.00
9289;BME280;4683;50.864;12.086;2022-12-10T05:57:16;98191.00;;;2.46;100.00
9289;BME280;4683;50.864;12.086;2022-12-10T05:59:46;98195.38;;;2.46;100.00
9289;BME280;4683;50.864;12.086;2022-12-10T06:02:15;98200.63;;;2.54;100.00
9289;BME280;4683;50.864;12.086;2022-12-10T06:04:43;98203.31;;;2.44;100.00
9289;BME280;4683;50.864;12.086;2022-12-10T06:07:12;98202.50;;;2.44;100.00
9289;BME280;4683;50.864;12.086;2022-12-10T06:09:40;98197.53;;;2.33;100.00
9289;BME280;4683;50.864;12.086;2022-12-10T06:12:11;98208.41;;;2.28;100.00
9289;BME280;4683;50.864;12.086;2022-12-10T06:14:39;98207.88;;;2.24;100.00
9289;BME280;4683;50.864;12.086;2022-12-10T06:17:09;98213.88;;;2.25;100.00
9289;BME280;4683;50.864;12.086;2022-12-10T06:19:37;98213.81;;;2.35;100.00
9289;BME280;4683;50.864;12.086;2022-12-10T06:22:06;98216.50;;;2.43;100.00
9289;BME280;4683;50.864;12.086;2022-12-10T06:24:34;98219.63;;;2.28;100.00
9289;BME280;4683;50.864;12.086;2022-12-10T06:27:02;98229.22;;;2.28;100.00
9289;BME280;4683;50.864;12.086;2022-12-10T06:29:32;98234.84;;;2.06;100.00
9289;BME280;4683;50.864;12.086;2022-12-10T06:32:00;98228.03;;;2.05;100.00
9289;BME280;4683;50.864;12.086;2022-12-10T06:34:29;98225.25;;;2.06;100.00
9289;BME280;4683;50.864;12.086;2022-12-10T06:36:58;98235.47;;;1.90;100.00
9289;BME280;4683;50.864;12.086;2022-12-10T06:39:26;98231.28;;;2.07;100.00
9289;BME280;4683;50.864;12.086;2022-12-10T06:41:54;98234.19;;;2.21;100.00
9289;BME280;4683;50.864;12.086;2022-12-10T06:44:23;98251.56;;;2.21;100.00
9289;BME280;4683;50.864;12.086;2022-12-10T06:46:51;98244.00;;;2.27;100.00
9289;BME280;4683;50.864;12.086;2022-12-10T06:49:19;98240.81;;;2.34;100.00
9289;BME280;4683;50.864;12.086;2022-12-10T06:51:49;98255.16;;;2.20;100.00
9289;BME280;4683;50.864;12.086;2022-12-10T06:54:17;98254.16;;;2.03;100.00
9289;BME280;4683;50.864;12.086;2022-12-10T06:56:46;98255.41;;;1.99;100.00
9289;BME280;4683;50.864;12.086;2022-12-10T06:59:14;98260.09;;;1.95;100.00
9289;BME280;4683;50.864;12.086;2022-12-10T07:01:42;98263.69;;;1.85;100.00
9289;BME280;4683;50.864;12.086;2022-12-10T07:04:10;98261.25;;;1.83;100.00
9289;BME280;4683;50.864;12.086;2022-12-10T07:06:39;98273.22;;;1.94;100.00
9289;BME280;4683;50.864;12.086;2022-12-10T07:09:09;98267.91;;;1.95;100.00
9289;BME280;4683;50.864;12.086;2022-12-10T07:11:38;98274.41;;;1.99;100.00
9289;BME280;4683;50.864;12.086;2022-12-10T07:14:06;98269.66;;;1.95;100.00
9289;BME280;4683;50.864;12.086;2022-12-10T07:16:35;98265.06;;;1.89;100.00
9289;BME280;4683;50.864;12.086;2022-12-10T07:19:03;98273.22;;;1.94;100.00
9289;BME280;4683;50.864;12.086;2022-12-10T07:21:33;98272.13;;;1.96;100.00
9289;BME280;4683;50.864;12.086;2022-12-10T07:24:10;98273.69;;;2.07;100.00
9289;BME280;4683;50.864;12.086;2022-12-10T07:26:42;98284.09;;;2.07;100.00
9289;BME280;4683;50.864;12.086;2022-12-10T07:29:15;98280.53;;;2.08;100.00
9289;BME280;4683;50.864;12.086;2022-12-10T07:31:44;98279.16;;;2.14;100.00
9289;BME280;4683;50.864;12.086;2022-12-10T07:34:13;98272.81;;;2.16;100.00
9289;BME280;4683;50.864;12.086;2022-12-10T07:36:42;98282.69;;;2.13;100.00
9289;BME280;4683;50.864;12.086;2022-12-10T07:39:13;98282.22;;;1.99;100.00
9289;BME280;4683;50.864;12.086;2022-12-10T07:41:44;98281.50;;;2.07;100.00
9289;BME280;4683;50.864;12.086;2022-12-10T07:44:13;98283.00;;;2.10;100.00
9289;BME280;4683;50.864;12.086;2022-12-10T07:46:42;98291.19;;;2.15;100.00
9289;BME280;4683;50.864;12.086;2022-12-10T07:49:11;98285.91;;;2.24;100.00
9289;BME280;4683;50.864;12.086;2022-12-10T07:51:39;98286.38;;;2.20;100.00
9289;BME280;4683;50.864;12.086;2022-12-10T07:54:13;98301.81;;;2.21;100.00
9289;BME280;4683;50.864;12.086;2022-12-10T07:56:41;98301.34;;;2.08;100.00
9289;BME280;4683;50.864;12.086;2022-12-10T07:59:10;98309.53;;;1.86;100.00
9289;BME280;4683;50.864;12.086;2022-12-10T08:01:38;98310.44;;;1.94;100.00
9289;BME280;4683;50.864;12.086;2022-12-10T08:04:07;98309.91;;;2.00;100.00
9289;BME280;4683;50.864;12.086;2022-12-10T08:06:35;98310.22;;;1.88;100.00
9289;BME280;4683;50.864;12.086;2022-12-10T08:09:04;98312.53;;;1.91;100.00
9289;BME280;4683;50.864;12.086;2022-12-10T08:11:33;98311.09;;;2.06;100.00
9289;BME280;4683;50.864;12.086;2022-12-10T08:14:01;98308.66;;;2.22;100.00
9289;BME280;4683;50.864;12.086;2022-12-10T08:16:30;98306.81;;;2.33;100.00
9289;BME280;4683;50.864;12.086;2022-12-10T08:19:00;98303.25;;;2.34;100.00
9289;BME280;4683;50.864;12.086;2022-12-10T08:21:30;98302.56;;;2.32;100.00
9289;BME280;4683;50.864;12.086;2022-12-10T08:23:59;98303.41;;;2.32;100.00
9289;BME280;4683;50.864;12.086;2022-12-10T08:26:33;98308.97;;;2.19;100.00
9289;BME280;4683;50.864;12.086;2022-12-10T08:29:02;98310.13;;;2.07;100.00
9289;BME280;4683;50.864;12.086;2022-12-10T08:31:30;98318.28;;;2.12;100.00
9289;BME280;4683;50.864;12.086;2022-12-10T08:34:01;98315.75;;;2.02;100.00
9289;BME280;4683;50.864;12.086;2022-12-10T08:36:30;98308.97;;;2.19;100.00
9289;BME280;4683;50.864;12.086;2022-12-10T08:38:58;98319.91;;;2.23;100.00
9289;BME280;4683;50.864;12.086;2022-12-10T08:41:26;98310.59;;;2.20;100.00
9289;BME280;4683;50.864;12.086;2022-12-10T08:43:56;98308.66;;;2.22;100.00
9289;BME280;4683;50.864;12.086;2022-12-10T08:46:26;98311.41;;;2.21;100.00
9289;BME280;4683;50.864;12.086;2022-12-10T08:48:55;98307.41;;;2.26;100.00
9289;BME280;4683;50.864;12.086;2022-12-10T08:51:23;98313.09;;;2.12;100.00
9289;BME280;4683;50.864;12.086;2022-12-10T08:53:52;98314.72;;;1.95;100.00
9289;BME280;4683;50.864;12.086;2022-12-10T08:56:21;98317.34;;;1.86;100.00
9289;BME280;4683;50.864;12.086;2022-12-10T08:58:49;98321.81;;;1.93;100.00
9289;BME280;4683;50.864;12.086;2022-12-10T09:01:21;98323.13;;;2.07;100.00
9289;BME280;4683;50.864;12.086;2022-12-10T09:03:50;98324.56;;;2.19;100.00
9289;BME280;4683;50.864;12.086;2022-12-10T09:06:21;98328.81;;;1.93;100.00
9289;BME280;4683;50.864;12.086;2022-12-10T09:08:51;98338.72;;;2.07;100.00
9289;BME280;4683;50.864;12.086;2022-12-10T09:11:22;98336.22;;;2.15;100.00
9289;BME280;4683;50.864;12.086;2022-12-10T09:13:52;98340.78;;;2.03;100.00
9289;BME280;4683;50.864;12.086;2022-12-10T09:16:27;98344.63;;;2.09;100.00
9289;BME280;4683;50.864;12.086;2022-12-10T09:18:55;98348.25;;;2.16;100.00
9289;BME280;4683;50.864;12.086;2022-12-10T09:21:27;98344.56;;;1.91;100.00
9289;BME280;4683;50.864;12.086;2022-12-10T09:23:59;98346.91;;;1.85;100.00
9289;BME280;4683;50.864;12.086;2022-12-10T09:26:30;98345.19;;;2.03;100.00
9289;BME280;4683;50.864;12.086;2022-12-10T09:28:58;98349.72;;;2.01;100.00
9289;BME280;4683;50.864;12.086;2022-12-10T09:31:29;98346.53;;;2.07;100.00
9289;BME280;4683;50.864;12.086;2022-12-10T09:34:03;98346.72;;;2.23;100.00
9289;BME280;4683;50.864;12.086;2022-12-10T09:36:33;98346.22;;;2.38;100.00
9289;BME280;4683;50.864;12.086;2022-12-10T09:39:02;98332.34;;;2.47;100.00
9289;BME280;4683;50.864;12.086;2022-12-10T09:41:52;98335.13;;;2.36;100.00
9289;BME280;4683;50.864;12.086;2022-12-10T09:44:35;98331.63;;;2.27;100.00
9289;BME280;4683;50.864;12.086;2022-12-10T09:47:09;98341.00;;;2.20;100.00
9289;BME280;4683;50.864;12.086;2022-12-10T09:49:58;98329.47;;;2.22;100.00
9289;BME280;4683;50.864;12.086;2022-12-10T09:52:36;98336.00;;;2.26;100.00
9289;BME280;4683;50.864;12.086;2022-12-10T09:55:12;98330.91;;;2.07;100.00
9289;BME280;4683;50.864;12.086;2022-12-10T09:57:45;98327.44;;;1.89;100.00
9289;BME280;4683;50.864;12.086;2022-12-10T10:00:22;98339.09;;;1.85;100.00
9289;BME280;4683;50.864;12.086;2022-12-10T10:02:55;98336.78;;;1.82;100.00
9289;BME280;4683;50.864;12.086;2022-12-10T10:05:26;98330.53;;;1.74;100.00
9289;BME280;4683;50.864;12.086;2022-12-10T10:07:59;98339.13;;;1.75;100.00
9289;BME280;4683;50.864;12.086;2022-12-10T10:10:31;98336.84;;;1.62;100.00
9289;BME280;4683;50.864;12.086;2022-12-10T10:13:11;98329.38;;;1.49;100.00
9289;BME280;4683;50.864;12.086;2022-12-10T10:15:45;98332.34;;;1.64;100.00
9289;BME280;4683;50.864;12.086;2022-12-10T10:18:21;98330.84;;;1.62;100.00
9289;BME280;4683;50.864;12.086;2022-12-10T10:20:58;98336.00;;;1.71;100.00
9289;BME280;4683;50.864;12.086;2022-12-10T10:23:28;98328.03;;;1.83;100.00
9289;BME280;4683;50.864;12.086;2022-12-10T10:25:58;98337.56;;;1.92;100.00
9289;BME280;4683;50.864;12.086;2022-12-10T10:28:27;98325.00;;;1.87;100.00
9289;BME280;4683;50.864;12.086;2022-12-10T10:30:56;98335.63;;;1.94;100.00
9289;BME280;4683;50.864;12.086;2022-12-10T10:33:26;98334.28;;;1.90;100.00
9289;BME280;4683;50.864;12.086;2022-12-10T10:35:56;98339.88;;;1.95;100.00
9289;BME280;4683;50.864;12.086;2022-12-10T10:38:28;98332.38;;;1.92;100.00
9289;BME280;4683;50.864;12.086;2022-12-10T10:41:00;98330.44;;;1.94;100.00
9289;BME280;4683;50.864;12.086;2022-12-10T10:43:39;98336.50;;;1.85;100.00
9289;BME280;4683;50.864;12.086;2022-12-10T10:46:13;98330.22;;;1.87;100.00
9289;BME280;4683;50.864;12.086;2022-12-10T10:48:43;98320.41;;;1.99;100.00
9289;BME280;4683;50.864;12.086;2022-12-10T10:51:19;98330.22;;;1.87;100.00
9289;BME280;4683;50.864;12.086;2022-12-10T10:53:51;98323.44;;;1.67;100.00
9289;BME280;4683;50.864;12.086;2022-12-10T10:56:21;98322.22;;;1.61;100.00
9289;BME280;4683;50.864;12.086;2022-12-10T10:58:55;98319.41;;;1.45;100.00
9289;BME280;4683;50.864;12.086;2022-12-10T11:01:26;98327.16;;;1.64;100.00
9289;BME280;4683;50.864;12.086;2022-12-10T11:03:58;98322.88;;;1.63;100.00
9289;BME280;4683;50.864;12.086;2022-12-10T11:06:27;98322.13;;;1.53;100.00
9289;BME280;4683;50.864;12.086;2022-12-10T11:08:58;98330.34;;;1.48;100.00
9289;BME280;4683;50.864;12.086;2022-12-10T11:11:34;98327.31;;;1.53;100.00
9289;BME280;4683;50.864;12.086;2022-12-10T11:14:23;98324.25;;;1.20;100.00
9289;BME280;4683;50.864;12.086;2022-12-10T11:17:02;98324.13;;;1.12;100.00
9289;BME280;4683;50.864;12.086;2022-12-10T11:19:32;98330.53;;;1.18;100.00
9289;BME280;4683;50.864;12.086;2022-12-10T11:22:19;98324.13;;;1.02;100.00
9289;BME280;4683;50.864;12.086;2022-12-10T11:24:48;98326.56;;;1.23;100.00
9289;BME280;4683;50.864;12.086;2022-12-10T11:27:37;98326.13;;;1.38;100.00
9289;BME280;4683;50.864;12.086;2022-12-10T11:30:15;98330.31;;;1.58;100.00
9289;BME280;4683;50.864;12.086;2022-12-10T11:33:11;98332.09;;;1.58;100.00
9289;BME280;4683;50.864;12.086;2022-12-10T11:35:55;98333.34;;;1.44;100.00
9289;BME280;4683;50.864;12.086;2022-12-10T11:38:35;98347.03;;;1.46;100.00
9289;BME280;4683;50.864;12.086;2022-12-10T11:41:16;98331.47;;;1.26;100.00
9289;BME280;4683;50.864;12.086;2022-12-10T11:44:17;98338.72;;;1.33;100.00
9289;BME280;4683;50.864;12.086;2022-12-10T11:47:29;98327.50;;;1.42;100.00
9289;BME280;4683;50.864;12.086;2022-12-10T11:50:13;98334.44;;;1.51;100.00
9289;BME280;4683;50.864;12.086;2022-12-10T11:53:12;98332.50;;;1.53;100.00
9289;BME280;4683;50.864;12.086;2022-12-10T11:55:54;98334.88;;;1.46;100.00
9289;BME280;4683;50.864;12.086;2022-12-10T11:58:57;98331.88;;;1.41;100.00
9289;BME280;4683;50.864;12.086;2022-12-10T12:01:43;98329.28;;;1.41;100.00
9289;BME280;4683;50.864;12.086;2022-12-10T12:04:30;98331.47;;;1.26;100.00
9289;BME280;4683;50.864;12.086;2022-12-10T12:07:38;98339.25;;;1.26;100.00
9289;BME280;4683;50.864;12.086;2022-12-10T12:10:58;98338.34;;;1.27;100.00
9289;BME280;4683;50.864;12.086;2022-12-10T12:13:35;98333.97;;;1.18;100.00
9289;BME280;4683;50.864;12.086;2022-12-10T12:16:14;98342.59;;;1.19;100.00
9289;BME280;4683;50.864;12.086;2022-12-10T12:18:50;98343.09;;;1.32;100.00
9289;BME280;4683;50.864;12.086;2022-12-10T12:21:22;98340.34;;;1.43;100.00
9289;BME280;4683;50.864;12.086;2022-12-10T12:23:54;98339.06;;;1.57;100.00
9289;BME280;4683;50.864;12.086;2022-12-10T12:26:31;98344.53;;;1.64;100.00
9289;BME280;4683;50.864;12.086;2022-12-10T12:29:12;98346.41;;;1.71;100.00
9289;BME280;4683;50.864;12.086;2022-12-10T12:31:46;98346.72;;;1.68;100.00
9289;BME280;4683;50.864;12.086;2022-12-10T12:34:22;98352.94;;;1.75;100.00
9289;BME280;4683;50.864;12.086;2022-12-10T12:36:52;98357.38;;;1.65;100.00
9289;BME280;4683;50.864;12.086;2022-12-10T12:39:31;98356.88;;;1.42;100.00
9289;BME280;4683;50.864;12.086;2022-12-10T12:42:12;98356.88;;;1.42;100.00
9289;BME280;4683;50.864;12.086;2022-12-10T12:45:01;98356.38;;;1.29;100.00
9289;BME280;4683;50.864;12.086;2022-12-10T12:47:41;98352.81;;;1.30;100.00
9289;BME280;4683;50.864;12.086;2022-12-10T12:50:25;98351.44;;;1.26;100.00
9289;BME280;4683;50.864;12.086;2022-12-10T12:52:58;98346.53;;;1.33;100.00
9289;BME280;4683;50.864;12.086;2022-12-10T12:55:35;98351.28;;;1.47;100.00
9289;BME280;4683;50.864;12.086;2022-12-10T12:58:24;98355.06;;;1.52;100.00
9289;BME280;4683;50.864;12.086;2022-12-10T13:01:14;98348.53;;;1.48;100.00
9289;BME280;4683;50.864;12.086;2022-12-10T13:03:45;98351.28;;;1.47;100.00
9289;BME280;4683;50.864;12.086;2022-12-10T13:06:33;98355.78;;;1.55;100.00
9289;BME280;4683;50.864;12.086;2022-12-10T13:09:26;98357.19;;;1.30;100.00
9289;BME280;4683;50.864;12.086;2022-12-10T13:12:28;98354.75;;;1.18;100.00
9289;BME280;4683;50.864;12.086;2022-12-10T13:15:21;98358.00;;;1.20;100.00
9289;BME280;4683;50.864;12.086;2022-12-10T13:18:18;98354.88;;;1.17;100.00
9289;BME280;4683;50.864;12.086;2022-12-10T13:21:30;98361.03;;;1.16;100.00
9289;BME280;4683;50.864;12.086;2022-12-10T13:24:10;98367.31;;;1.13;100.00
9289;BME280;4683;50.864;12.086;2022-12-10T13:27:03;98358.28;;;1.17;100.00
9289;BME280;4683;50.864;12.086;2022-12-10T13:29:46;98369.06;;;1.22;100.00
9289;BME280;4683;50.864;12.086;2022-12-10T13:32:18;98370.03;;;1.21;100.00
9289;BME280;4683;50.864;12.086;2022-12-10T13:34:47;98373.84;;;1.27;100.00
9289;BME280;4683;50.864;12.086;2022-12-10T13:37:55;98369.78;;;1.24;100.00
9289;BME280;4683;50.864;12.086;2022-12-10T13:40:27;98370.16;;;1.30;100.00
9289;BME280;4683;50.864;12.086;2022-12-10T13:43:28;98377.16;;;1.19;100.00
9289;BME280;4683;50.864;12.086;2022-12-10T13:46:28;98378.78;;;1.20;100.00
9289;BME280;4683;50.864;12.086;2022-12-10T13:49:02;98378.13;;;1.28;100.00